sensor_id;sensor_type;location;lat;lon;timestamp;pressure;altitude;pressure_sealevel;temperature;humidity
71938;BME280;59810;48.800;9.086;2022-07-22T00:01:30;98005.25;;;18.72;76.04
71938;BME280;59810;48.800;9.086;2022-07-22T00:03:55;98003.13;;;18.69;75.86
71938;BME280;59810;48.800;9.086;2022-07-22T00:06:21;98000.16;;;18.65;75.81
71938;BME280;59810;48.800;9.086;2022-07-22T00:08:46;97995.31;;;18.57;77.27
71938;BME280;59810;48.800;9.086;2022-07-22T00:11:11;98004.94;;;18.50;77.85
71938;BME280;59810;48.800;9.086;2022-07-22T00:13:37;98011.00;;;18.47;78.29
71938;BME280;59810;48.800;9.086;2022-07-22T00:16:02;98006.94;;;18.44;77.96
71938;BME280;59810;48.800;9.086;2022-07-22T00:18:28;98002.81;;;18.47;77.39
71938;BME280;59810;48.800;9.086;2022-07-22T00:20:54;98009.16;;;18.42;77.75
71938;BME280;59810;48.800;9.086;2022-07-22T00:23:20;98000.59;;;18.49;76.86
71938;BME280;59810;48.800;9.086;2022-07-22T00:25:45;97996.72;;;18.55;76.32
71938;BME280;59810;48.800;9.086;2022-07-22T00:28:11;98006.84;;;18.54;77.09
71938;BME280;59810;48.800;9.086;2022-07-22T00:30:36;97993.44;;;18.53;76.73
71938;BME280;59810;48.800;9.086;2022-07-22T00:33:03;97997.56;;;18.50;76.31
71938;BME280;59810;48.800;9.086;2022-07-22T00:35:31;97994.44;;;18.38;77.45
71938;BME280;59810;48.800;9.086;2022-07-22T00:37:56;98000.72;;;18.39;77.02
71938;BME280;59810;48.800;9.086;2022-07-22T00:40:21;97996.94;;;18.34;77.97
71938;BME280;59810;48.800;9.086;2022-07-22T00:42:49;97994.16;;;18.40;77.18
71938;BME280;59810;48.800;9.086;2022-07-22T00:45:15;97991.06;;;18.46;76.98
71938;BME280;59810;48.800;9.086;2022-07-22T00:47:40;97990.81;;;18.43;77.29
71938;BME280;59810;48.800;9.086;2022-07-22T00:50:06;97988.22;;;18.32;77.71
71938;BME280;59810;48.800;9.086;2022-07-22T00:52:33;97989.03;;;18.33;77.11
71938;BME280;59810;48.800;9.086;2022-07-22T00:54:59;97981.72;;;18.28;77.57
71938;BME280;59810;48.800;9.086;2022-07-22T00:57:24;97981.72;;;18.28;77.73
71938;BME280;59810;48.800;9.086;2022-07-22T00:59:50;97979.78;;;18.29;77.71
71938;BME280;59810;48.800;9.086;2022-07-22T01:02:15;97984.50;;;18.23;77.90
71938;BME280;59810;48.800;9.086;2022-07-22T01:04:40;97983.69;;;18.23;77.90
71938;BME280;59810;48.800;9.086;2022-07-22T01:07:06;97982.91;;;18.17;78.64
71938;BME280;59810;48.800;9.086;2022-07-22T01:09:31;97979.13;;;18.13;78.29
71938;BME280;59810;48.800;9.086;2022-07-22T01:11:56;97980.75;;;18.14;77.48
71938;BME280;59810;48.800;9.086;2022-07-22T01:14:22;97981.56;;;18.15;78.10
71938;BME280;59810;48.800;9.086;2022-07-22T01:16:47;97981.63;;;18.10;78.51
71938;BME280;59810;48.800;9.086;2022-07-22T01:19:13;97973.50;;;18.04;78.72
71938;BME280;59810;48.800;9.086;2022-07-22T01:21:38;97973.84;;;17.98;78.78
71938;BME280;59810;48.800;9.086;2022-07-22T01:24:04;97981.00;;;17.94;78.43
71938;BME280;59810;48.800;9.086;2022-07-22T01:26:30;97969.25;;;17.93;79.55
71938;BME280;59810;48.800;9.086;2022-07-22T01:28:55;97971.97;;;17.93;79.17
71938;BME280;59810;48.800;9.086;2022-07-22T01:31:21;97981.56;;;17.91;80.07
71938;BME280;59810;48.800;9.086;2022-07-22T01:33:46;97979.59;;;17.96;78.60
71938;BME280;59810;48.800;9.086;2022-07-22T01:36:11;97972.75;;;17.99;79.60
71938;BME280;59810;48.800;9.086;2022-07-22T01:38:37;97976.00;;;18.01;78.92
71938;BME280;59810;48.800;9.086;2022-07-22T01:41:05;97974.72;;;17.93;79.63
71938;BME280;59810;48.800;9.086;2022-07-22T01:43:30;97977.47;;;17.88;79.75
71938;BME280;59810;48.800;9.086;2022-07-22T01:45:56;97974.19;;;17.91;79.45
71938;BME280;59810;48.800;9.086;2022-07-22T01:48:22;97979.13;;;17.89;79.75
71938;BME280;59810;48.800;9.086;2022-07-22T01:50:48;97975.59;;;17.84;79.21
71938;BME280;59810;48.800;9.086;2022-07-22T01:53:14;97976.72;;;17.83;80.60
71938;BME280;59810;48.800;9.086;2022-07-22T01:55:42;97980.06;;;17.75;80.12
71938;BME280;59810;48.800;9.086;2022-07-22T01:58:13;97976.19;;;17.81;79.43
71938;BME280;59810;48.800;9.086;2022-07-22T02:00:40;97976.28;;;17.70;80.14
71938;BME280;59810;48.800;9.086;2022-07-22T02:03:06;97980.38;;;17.73;80.39
71938;BME280;59810;48.800;9.086;2022-07-22T02:05:32;97977.34;;;17.75;79.69
71938;BME280;59810;48.800;9.086;2022-07-22T02:08:05;97977.41;;;17.64;80.85
71938;BME280;59810;48.800;9.086;2022-07-22T02:10:34;97981.25;;;17.63;80.77
71938;BME280;59810;48.800;9.086;2022-07-22T02:13:00;97976.06;;;17.62;79.79
71938;BME280;59810;48.800;9.086;2022-07-22T02:15:26;97980.44;;;17.63;79.80
71938;BME280;59810;48.800;9.086;2022-07-22T02:17:52;97980.50;;;17.53;81.09
71938;BME280;59810;48.800;9.086;2022-07-22T02:20:17;97975.91;;;17.48;81.35
71938;BME280;59810;48.800;9.086;2022-07-22T02:22:43;97974.28;;;17.47;81.31
71938;BME280;59810;48.800;9.086;2022-07-22T02:25:08;97970.50;;;17.43;81.73
71938;BME280;59810;48.800;9.086;2022-07-22T02:27:34;97973.75;;;17.45;80.93
71938;BME280;59810;48.800;9.086;2022-07-22T02:30:00;97975.63;;;17.50;81.40
71938;BME280;59810;48.800;9.086;2022-07-22T02:32:27;97977.00;;;17.47;81.45
71938;BME280;59810;48.800;9.086;2022-07-22T02:34:53;97981.13;;;17.45;81.03
71938;BME280;59810;48.800;9.086;2022-07-22T02:37:20;97977.00;;;17.47;81.07
71938;BME280;59810;48.800;9.086;2022-07-22T02:39:46;97981.66;;;17.47;81.14
71938;BME280;59810;48.800;9.086;2022-07-22T02:42:11;97970.69;;;17.52;80.03
71938;BME280;59810;48.800;9.086;2022-07-22T02:44:37;97975.25;;;17.61;79.69
71938;BME280;59810;48.800;9.086;2022-07-22T02:47:02;97980.13;;;17.69;78.36
71938;BME280;59810;48.800;9.086;2022-07-22T02:49:27;97972.69;;;17.75;78.05
71938;BME280;59810;48.800;9.086;2022-07-22T02:51:53;97975.09;;;17.82;77.94
71938;BME280;59810;48.800;9.086;2022-07-22T02:54:18;97971.19;;;17.88;77.34
71938;BME280;59810;48.800;9.086;2022-07-22T02:56:43;97965.19;;;17.91;77.60
71938;BME280;59810;48.800;9.086;2022-07-22T02:59:09;97971.47;;;17.91;77.31
71938;BME280;59810;48.800;9.086;2022-07-22T03:01:34;97970.88;;;17.94;77.27
71938;BME280;59810;48.800;9.086;2022-07-22T03:04:00;97970.66;;;17.91;77.73
71938;BME280;59810;48.800;9.086;2022-07-22T03:06:27;97975.13;;;17.77;78.74
71938;BME280;59810;48.800;9.086;2022-07-22T03:08:53;97978.09;;;17.80;77.92
71938;BME280;59810;48.800;9.086;2022-07-22T03:11:23;97980.59;;;17.77;77.49
71938;BME280;59810;48.800;9.086;2022-07-22T03:13:49;97976.78;;;17.78;78.16
71938;BME280;59810;48.800;9.086;2022-07-22T03:16:14;97975.38;;;17.80;77.86
71938;BME280;59810;48.800;9.086;2022-07-22T03:18:39;97974.03;;;17.78;77.73
71938;BME280;59810;48.800;9.086;2022-07-22T03:21:05;97978.41;;;17.79;77.52
71938;BME280;59810;48.800;9.086;2022-07-22T03:23:30;97974.09;;;17.72;77.88
71938;BME280;59810;48.800;9.086;2022-07-22T03:25:56;97976.78;;;17.78;77.92
71938;BME280;59810;48.800;9.086;2022-07-22T03:28:22;97982.22;;;17.78;78.13
71938;BME280;59810;48.800;9.086;2022-07-22T03:30:48;97972.13;;;17.78;78.00
71938;BME280;59810;48.800;9.086;2022-07-22T03:33:13;97976.78;;;17.78;78.09
71938;BME280;59810;48.800;9.086;2022-07-22T03:35:38;97983.03;;;17.78;77.98
71938;BME280;59810;48.800;9.086;2022-07-22T03:38:04;97979.22;;;17.79;78.05
71938;BME280;59810;48.800;9.086;2022-07-22T03:40:29;97979.84;;;17.71;78.67
71938;BME280;59810;48.800;9.086;2022-07-22T03:42:55;97972.75;;;17.70;78.58
71938;BME280;59810;48.800;9.086;2022-07-22T03:45:20;97972.81;;;17.60;80.27
71938;BME280;59810;48.800;9.086;2022-07-22T03:47:45;97983.22;;;17.53;80.86
71938;BME280;59810;48.800;9.086;2022-07-22T03:50:11;97980.66;;;17.37;80.63
71938;BME280;59810;48.800;9.086;2022-07-22T03:52:36;97983.13;;;17.34;80.73
71938;BME280;59810;48.800;9.086;2022-07-22T03:55:03;97978.28;;;17.21;81.61
71938;BME280;59810;48.800;9.086;2022-07-22T03:57:30;97978.28;;;17.21;82.04
71938;BME280;59810;48.800;9.086;2022-07-22T03:59:56;97972.69;;;17.07;82.96
71938;BME280;59810;48.800;9.086;2022-07-22T04:02:21;97974.56;;;17.11;82.01
71938;BME280;59810;48.800;9.086;2022-07-22T04:04:47;97974.06;;;17.04;82.42
71938;BME280;59810;48.800;9.086;2022-07-22T04:07:12;97977.56;;;17.10;82.29
71938;BME280;59810;48.800;9.086;2022-07-22T04:09:37;97980.84;;;17.07;83.25
71938;BME280;59810;48.800;9.086;2022-07-22T04:12:03;97969.66;;;17.08;83.46
71938;BME280;59810;48.800;9.086;2022-07-22T04:14:29;97982.44;;;17.13;82.72
71938;BME280;59810;48.800;9.086;2022-07-22T04:16:54;97977.25;;;17.17;82.47
71938;BME280;59810;48.800;9.086;2022-07-22T04:19:19;97984.03;;;17.24;82.31
71938;BME280;59810;48.800;9.086;2022-07-22T04:21:45;97976.09;;;17.23;81.89
71938;BME280;59810;48.800;9.086;2022-07-22T04:24:10;97968.53;;;17.15;83.22
71938;BME280;59810;48.800;9.086;2022-07-22T04:26:35;97970.16;;;17.16;82.98
71938;BME280;59810;48.800;9.086;2022-07-22T04:29:02;97978.06;;;17.17;82.55
71938;BME280;59810;48.800;9.086;2022-07-22T04:31:30;97975.03;;;17.24;82.78
71938;BME280;59810;48.800;9.086;2022-07-22T04:33:55;97969.81;;;17.22;82.83
71938;BME280;59810;48.800;9.086;2022-07-22T04:36:21;97966.03;;;17.18;83.66
71938;BME280;59810;48.800;9.086;2022-07-22T04:38:47;97966.19;;;17.37;83.49
71938;BME280;59810;48.800;9.086;2022-07-22T04:41:12;97975.25;;;17.61;82.52
71938;BME280;59810;48.800;9.086;2022-07-22T04:43:37;97967.09;;;17.90;81.21
71938;BME280;59810;48.800;9.086;2022-07-22T04:46:03;97963.09;;;18.07;80.57
71938;BME280;59810;48.800;9.086;2022-07-22T04:48:28;97962.13;;;18.21;78.95
71938;BME280;59810;48.800;9.086;2022-07-22T04:51:00;97970.25;;;18.26;78.46
71938;BME280;59810;48.800;9.086;2022-07-22T04:53:26;97965.31;;;18.28;77.75
71938;BME280;59810;48.800;9.086;2022-07-22T04:55:52;97967.47;;;18.31;77.51
71938;BME280;59810;48.800;9.086;2022-07-22T04:58:17;97965.25;;;18.33;77.21
71938;BME280;59810;48.800;9.086;2022-07-22T05:00:43;97970.06;;;18.42;77.81
71938;BME280;59810;48.800;9.086;2022-07-22T05:03:08;97968.78;;;18.34;77.43
71938;BME280;59810;48.800;9.086;2022-07-22T05:05:33;97963.19;;;18.44;77.29
71938;BME280;59810;48.800;9.086;2022-07-22T05:07:59;97962.94;;;18.22;76.81
71938;BME280;59810;48.800;9.086;2022-07-22T05:10:25;97965.13;;;18.20;77.21
71938;BME280;59810;48.800;9.086;2022-07-22T05:12:50;97967.97;;;18.33;77.75
71938;BME280;59810;48.800;9.086;2022-07-22T05:15:16;97954.91;;;18.30;77.01
71938;BME280;59810;48.800;9.086;2022-07-22T05:17:41;97971.75;;;18.38;77.52
71938;BME280;59810;48.800;9.086;2022-07-22T05:20:07;97966.81;;;18.40;76.98
71938;BME280;59810;48.800;9.086;2022-07-22T05:22:32;97962.97;;;18.41;76.83
71938;BME280;59810;48.800;9.086;2022-07-22T05:25:00;97964.00;;;18.45;76.91
71938;BME280;59810;48.800;9.086;2022-07-22T05:27:25;97960.28;;;18.12;77.05
71938;BME280;59810;48.800;9.086;2022-07-22T05:29:51;97961.81;;;18.23;77.03
71938;BME280;59810;48.800;9.086;2022-07-22T05:32:16;97967.63;;;18.16;77.14
71938;BME280;59810;48.800;9.086;2022-07-22T05:34:41;97963.09;;;18.07;77.70
71938;BME280;59810;48.800;9.086;2022-07-22T05:37:07;97965.69;;;18.17;77.90
71938;BME280;59810;48.800;9.086;2022-07-22T05:39:32;97961.84;;;18.18;77.88
71938;BME280;59810;48.800;9.086;2022-07-22T05:41:58;97962.16;;;18.16;78.84
71938;BME280;59810;48.800;9.086;2022-07-22T05:44:23;97963.59;;;18.09;77.78
71938;BME280;59810;48.800;9.086;2022-07-22T05:46:49;97962.72;;;18.13;78.74
71938;BME280;59810;48.800;9.086;2022-07-22T05:49:14;97966.00;;;18.15;77.28
71938;BME280;59810;48.800;9.086;2022-07-22T05:51:39;97961.41;;;18.11;77.44
71938;BME280;59810;48.800;9.086;2022-07-22T05:54:05;97972.75;;;17.99;78.24
71938;BME280;59810;48.800;9.086;2022-07-22T05:56:30;97966.47;;;17.98;78.87
71938;BME280;59810;48.800;9.086;2022-07-22T05:58:56;97965.06;;;18.01;78.43
71938;BME280;59810;48.800;9.086;2022-07-22T06:01:21;97964.53;;;17.99;79.22
71938;BME280;59810;48.800;9.086;2022-07-22T06:03:47;97969.38;;;18.07;79.67
71938;BME280;59810;48.800;9.086;2022-07-22T06:06:13;97964.66;;;18.13;80.57
71938;BME280;59810;48.800;9.086;2022-07-22T06:08:40;97967.63;;;18.16;79.15
71938;BME280;59810;48.800;9.086;2022-07-22T06:11:06;97967.91;;;18.15;78.51
71938;BME280;59810;48.800;9.086;2022-07-22T06:13:32;97962.66;;;18.18;77.96
71938;BME280;59810;48.800;9.086;2022-07-22T06:15:59;97969.72;;;18.24;78.31
71938;BME280;59810;48.800;9.086;2022-07-22T06:18:25;97967.81;;;18.25;78.42
71938;BME280;59810;48.800;9.086;2022-07-22T06:20:50;97968.56;;;18.30;77.78
71938;BME280;59810;48.800;9.086;2022-07-22T06:23:16;97970.19;;;18.31;78.08
71938;BME280;59810;48.800;9.086;2022-07-22T06:25:41;97967.69;;;18.35;77.80
71938;BME280;59810;48.800;9.086;2022-07-22T06:28:07;97964.59;;;18.42;78.72
71938;BME280;59810;48.800;9.086;2022-07-22T06:30:35;97966.50;;;18.41;78.43
71938;BME280;59810;48.800;9.086;2022-07-22T06:33:00;97967.19;;;18.52;78.78
71938;BME280;59810;48.800;9.086;2022-07-22T06:35:26;97967.09;;;18.62;78.39
71938;BME280;59810;48.800;9.086;2022-07-22T06:37:52;97961.78;;;18.71;78.26
71938;BME280;59810;48.800;9.086;2022-07-22T06:40:17;97965.34;;;18.71;77.03
71938;BME280;59810;48.800;9.086;2022-07-22T06:42:43;97969.03;;;18.80;78.06
71938;BME280;59810;48.800;9.086;2022-07-22T06:45:08;97962.41;;;18.86;76.66
71938;BME280;59810;48.800;9.086;2022-07-22T06:47:36;97972.75;;;18.89;77.78
71938;BME280;59810;48.800;9.086;2022-07-22T06:50:04;97963.16;;;18.92;76.79
71938;BME280;59810;48.800;9.086;2022-07-22T06:52:30;97963.88;;;18.98;76.84
71938;BME280;59810;48.800;9.086;2022-07-22T06:54:55;97969.28;;;19.03;75.88
71938;BME280;59810;48.800;9.086;2022-07-22T06:57:20;97970.81;;;19.09;75.91
71938;BME280;59810;48.800;9.086;2022-07-22T06:59:48;97965.84;;;19.11;76.06
71938;BME280;59810;48.800;9.086;2022-07-22T07:02:13;97960.59;;;19.14;75.77
71938;BME280;59810;48.800;9.086;2022-07-22T07:04:39;97949.31;;;19.21;76.12
71938;BME280;59810;48.800;9.086;2022-07-22T07:07:04;97954.19;;;19.24;75.17
71938;BME280;59810;48.800;9.086;2022-07-22T07:09:30;97948.09;;;19.27;75.31
71938;BME280;59810;48.800;9.086;2022-07-22T07:11:55;97947.41;;;19.35;74.62
71938;BME280;59810;48.800;9.086;2022-07-22T07:14:20;97949.97;;;19.45;75.52
71938;BME280;59810;48.800;9.086;2022-07-22T07:16:46;97941.13;;;19.53;75.72
71938;BME280;59810;48.800;9.086;2022-07-22T07:19:11;97941.44;;;19.66;72.65
71938;BME280;59810;48.800;9.086;2022-07-22T07:21:37;97943.19;;;19.75;73.21
71938;BME280;59810;48.800;9.086;2022-07-22T07:24:02;97936.72;;;19.85;73.50
71938;BME280;59810;48.800;9.086;2022-07-22T07:26:28;97933.38;;;20.02;72.61
71938;BME280;59810;48.800;9.086;2022-07-22T07:28:53;97930.63;;;20.15;72.68
71938;BME280;59810;48.800;9.086;2022-07-22T07:31:19;97931.88;;;20.23;71.42
71938;BME280;59810;48.800;9.086;2022-07-22T07:33:44;97927.50;;;20.36;71.80
71938;BME280;59810;48.800;9.086;2022-07-22T07:36:10;97926.78;;;20.44;71.04
71938;BME280;59810;48.800;9.086;2022-07-22T07:38:37;97919.81;;;20.52;70.18
71938;BME280;59810;48.800;9.086;2022-07-22T07:41:05;97918.25;;;20.59;70.55
71938;BME280;59810;48.800;9.086;2022-07-22T07:43:30;97920.19;;;20.59;69.40
71938;BME280;59810;48.800;9.086;2022-07-22T07:45:56;97906.66;;;20.62;69.82
71938;BME280;59810;48.800;9.086;2022-07-22T07:48:21;97917.28;;;20.77;69.79
71938;BME280;59810;48.800;9.086;2022-07-22T07:50:47;97908.97;;;20.83;68.77
71938;BME280;59810;48.800;9.086;2022-07-22T07:53:15;97917.19;;;20.83;69.65
71938;BME280;59810;48.800;9.086;2022-07-22T07:55:41;97914.94;;;20.85;69.14
71938;BME280;59810;48.800;9.086;2022-07-22T07:58:07;97912.91;;;20.90;69.21
71938;BME280;59810;48.800;9.086;2022-07-22T08:00:33;97916.31;;;20.96;70.21
71938;BME280;59810;48.800;9.086;2022-07-22T08:03:00;97915.88;;;21.02;69.19
71938;BME280;59810;48.800;9.086;2022-07-22T08:05:28;97909.59;;;21.02;66.64
71938;BME280;59810;48.800;9.086;2022-07-22T08:07:58;97914.66;;;21.08;67.06
71938;BME280;59810;48.800;9.086;2022-07-22T08:10:33;97915.84;;;21.16;67.25
71938;BME280;59810;48.800;9.086;2022-07-22T08:12:59;97920.41;;;21.21;65.89
71938;BME280;59810;48.800;9.086;2022-07-22T08:15:28;97910.63;;;21.28;65.51
71938;BME280;59810;48.800;9.086;2022-07-22T08:17:54;97904.25;;;21.41;66.62
71938;BME280;59810;48.800;9.086;2022-07-22T08:20:20;97902.50;;;21.46;69.18
71938;BME280;59810;48.800;9.086;2022-07-22T08:22:45;97903.03;;;21.48;64.78
71938;BME280;59810;48.800;9.086;2022-07-22T08:25:13;97906.00;;;21.60;64.63
71938;BME280;59810;48.800;9.086;2022-07-22T08:27:41;97909.44;;;21.74;64.11
71938;BME280;59810;48.800;9.086;2022-07-22T08:30:07;97908.81;;;21.77;65.26
71938;BME280;59810;48.800;9.086;2022-07-22T08:32:33;97910.31;;;21.83;65.84
71938;BME280;59810;48.800;9.086;2022-07-22T08:34:59;97898.88;;;21.90;66.77
71938;BME280;59810;48.800;9.086;2022-07-22T08:37:25;97903.25;;;21.99;65.88
71938;BME280;59810;48.800;9.086;2022-07-22T08:39:51;97890.88;;;22.11;63.76
71938;BME280;59810;48.800;9.086;2022-07-22T08:42:21;97889.63;;;22.17;64.87
71938;BME280;59810;48.800;9.086;2022-07-22T08:44:47;97898.69;;;22.26;63.74
71938;BME280;59810;48.800;9.086;2022-07-22T08:47:12;97889.66;;;22.34;64.94
71938;BME280;59810;48.800;9.086;2022-07-22T08:49:39;97885.63;;;22.40;63.89
71938;BME280;59810;48.800;9.086;2022-07-22T08:52:05;97883.88;;;22.61;61.81
71938;BME280;59810;48.800;9.086;2022-07-22T08:54:30;97885.19;;;22.73;61.94
71938;BME280;59810;48.800;9.086;2022-07-22T08:56:56;97881.47;;;22.68;59.28
71938;BME280;59810;48.800;9.086;2022-07-22T08:59:21;97875.16;;;22.77;62.07
71938;BME280;59810;48.800;9.086;2022-07-22T09:02:07;97874.69;;;22.92;60.55
71938;BME280;59810;48.800;9.086;2022-07-22T09:07:23;97867.09;;;22.97;60.59
71938;BME280;59810;48.800;9.086;2022-07-22T09:09:51;97872.56;;;23.06;61.48
71938;BME280;59810;48.800;9.086;2022-07-22T09:12:17;97873.06;;;23.17;59.61
71938;BME280;59810;48.800;9.086;2022-07-22T09:14:52;97873.88;;;23.17;58.59
71938;BME280;59810;48.800;9.086;2022-07-22T09:17:30;97878.41;;;23.31;57.77
71938;BME280;59810;48.800;9.086;2022-07-22T09:20:03;97874.50;;;23.32;58.53
71938;BME280;59810;48.800;9.086;2022-07-22T09:22:35;97878.03;;;23.41;59.58
71938;BME280;59810;48.800;9.086;2022-07-22T09:25:34;97875.25;;;23.67;56.68
71938;BME280;59810;48.800;9.086;2022-07-22T09:30:37;97877.78;;;23.89;56.38
71938;BME280;59810;48.800;9.086;2022-07-22T09:33:03;97873.84;;;23.99;55.85
71938;BME280;59810;48.800;9.086;2022-07-22T09:35:29;97872.84;;;24.03;56.55
71938;BME280;59810;48.800;9.086;2022-07-22T09:38:00;97866.03;;;24.09;55.10
71938;BME280;59810;48.800;9.086;2022-07-22T09:40:33;97860.31;;;24.14;56.24
71938;BME280;59810;48.800;9.086;2022-07-22T09:43:03;97865.78;;;24.23;55.25
71938;BME280;59810;48.800;9.086;2022-07-22T09:45:30;97864.78;;;24.28;55.53
71938;BME280;59810;48.800;9.086;2022-07-22T09:47:57;97861.06;;;24.24;54.02
71938;BME280;59810;48.800;9.086;2022-07-22T09:50:27;97861.72;;;24.29;55.38
71938;BME280;59810;48.800;9.086;2022-07-22T09:52:54;97862.97;;;24.32;53.80
71938;BME280;59810;48.800;9.086;2022-07-22T09:55:22;97843.00;;;24.35;54.60
71938;BME280;59810;48.800;9.086;2022-07-22T09:57:49;97843.22;;;24.50;53.56
71938;BME280;59810;48.800;9.086;2022-07-22T10:00:20;97842.97;;;24.64;51.99
71938;BME280;59810;48.800;9.086;2022-07-22T10:02:54;97841.94;;;24.69;53.39
71938;BME280;59810;48.800;9.086;2022-07-22T10:05:27;97833.88;;;24.64;52.22
71938;BME280;59810;48.800;9.086;2022-07-22T10:07:53;97832.13;;;24.80;52.52
71938;BME280;59810;48.800;9.086;2022-07-22T10:10:24;97828.47;;;24.88;54.12
71938;BME280;59810;48.800;9.086;2022-07-22T10:12:51;97832.16;;;24.92;53.88
71938;BME280;59810;48.800;9.086;2022-07-22T10:15:17;97823.03;;;25.00;54.18
71938;BME280;59810;48.800;9.086;2022-07-22T10:17:46;97819.38;;;25.08;53.48
71938;BME280;59810;48.800;9.086;2022-07-22T10:20:16;97814.09;;;25.16;53.44
71938;BME280;59810;48.800;9.086;2022-07-22T10:25:09;97811.84;;;25.30;49.91
71938;BME280;59810;48.800;9.086;2022-07-22T10:30:18;97816.84;;;25.49;51.82
71938;BME280;59810;48.800;9.086;2022-07-22T10:32:44;97818.56;;;25.53;48.92
71938;BME280;59810;48.800;9.086;2022-07-22T10:40:18;97786.94;;;25.99;51.59
71938;BME280;59810;48.800;9.086;2022-07-22T10:45:32;97796.25;;;26.19;49.33
71938;BME280;59810;48.800;9.086;2022-07-22T10:48:02;97789.72;;;26.36;49.09
71938;BME280;59810;48.800;9.086;2022-07-22T10:53:07;97782.88;;;26.46;47.94
71938;BME280;59810;48.800;9.086;2022-07-22T10:55:36;97785.59;;;26.58;47.88
71938;BME280;59810;48.800;9.086;2022-07-22T11:00:58;97780.78;;;26.83;45.58
71938;BME280;59810;48.800;9.086;2022-07-22T11:03:24;97786.88;;;27.01;48.22
71938;BME280;59810;48.800;9.086;2022-07-22T11:05:50;97783.31;;;27.16;49.01
71938;BME280;59810;48.800;9.086;2022-07-22T11:08:16;97782.28;;;27.36;48.74
71938;BME280;59810;48.800;9.086;2022-07-22T11:10:50;97769.84;;;27.46;47.45
71938;BME280;59810;48.800;9.086;2022-07-22T11:13:39;97766.56;;;27.72;46.68
71938;BME280;59810;48.800;9.086;2022-07-22T11:16:23;97757.25;;;27.80;46.28
71938;BME280;59810;48.800;9.086;2022-07-22T11:18:57;97761.59;;;27.97;46.95
71938;BME280;59810;48.800;9.086;2022-07-22T11:21:32;97760.94;;;28.19;45.86
71938;BME280;59810;48.800;9.086;2022-07-22T11:24:03;97764.88;;;28.34;44.04
71938;BME280;59810;48.800;9.086;2022-07-22T11:26:40;97766.56;;;28.38;42.07
71938;BME280;59810;48.800;9.086;2022-07-22T11:29:06;97761.53;;;28.63;43.56
71938;BME280;59810;48.800;9.086;2022-07-22T11:31:31;97766.19;;;28.59;42.39
71938;BME280;59810;48.800;9.086;2022-07-22T11:34:12;97751.88;;;28.57;43.44
71938;BME280;59810;48.800;9.086;2022-07-22T11:36:44;97752.03;;;28.45;42.71
71938;BME280;59810;48.800;9.086;2022-07-22T11:39:14;97740.63;;;28.31;41.55
71938;BME280;59810;48.800;9.086;2022-07-22T11:41:42;97742.66;;;28.53;40.87
71938;BME280;59810;48.800;9.086;2022-07-22T11:44:09;97738.00;;;28.76;40.95
71938;BME280;59810;48.800;9.086;2022-07-22T11:46:39;97728.50;;;28.97;40.12
71938;BME280;59810;48.800;9.086;2022-07-22T11:49:06;97729.19;;;29.13;42.50
71938;BME280;59810;48.800;9.086;2022-07-22T11:51:33;97723.22;;;29.34;41.07
71938;BME280;59810;48.800;9.086;2022-07-22T11:53:59;97725.81;;;29.46;41.80
71938;BME280;59810;48.800;9.086;2022-07-22T11:56:28;97715.66;;;29.57;41.12
71938;BME280;59810;48.800;9.086;2022-07-22T11:58:54;97709.53;;;29.71;40.32
71938;BME280;59810;48.800;9.086;2022-07-22T12:01:22;97705.72;;;29.83;39.75
71938;BME280;59810;48.800;9.086;2022-07-22T12:03:59;97704.72;;;30.21;42.28
71938;BME280;59810;48.800;9.086;2022-07-22T12:06:27;97695.69;;;30.27;40.79
71938;BME280;59810;48.800;9.086;2022-07-22T12:09:04;97695.34;;;30.62;40.80
71938;BME280;59810;48.800;9.086;2022-07-22T12:11:30;97694.97;;;30.64;38.99
71938;BME280;59810;48.800;9.086;2022-07-22T12:13:56;97686.13;;;30.28;36.66
71938;BME280;59810;48.800;9.086;2022-07-22T12:21:19;97679.50;;;31.11;36.90
71938;BME280;59810;48.800;9.086;2022-07-22T12:24:09;97674.59;;;31.38;34.56
71938;BME280;59810;48.800;9.086;2022-07-22T12:26:50;97678.41;;;31.63;34.56
71938;BME280;59810;48.800;9.086;2022-07-22T12:31:44;97665.38;;;31.30;33.16
71938;BME280;59810;48.800;9.086;2022-07-22T12:34:12;97670.69;;;31.46;32.95
71938;BME280;59810;48.800;9.086;2022-07-22T12:36:38;97665.78;;;31.83;33.29
71938;BME280;59810;48.800;9.086;2022-07-22T12:39:25;97668.25;;;31.88;32.00
71938;BME280;59810;48.800;9.086;2022-07-22T12:41:53;97675.53;;;32.11;33.78
71938;BME280;59810;48.800;9.086;2022-07-22T12:46:46;97664.94;;;32.45;30.77
71938;BME280;59810;48.800;9.086;2022-07-22T12:49:11;97650.50;;;32.25;30.41
71938;BME280;59810;48.800;9.086;2022-07-22T12:51:37;97656.53;;;32.34;30.97
71938;BME280;59810;48.800;9.086;2022-07-22T12:54:03;97654.91;;;32.26;30.67
71938;BME280;59810;48.800;9.086;2022-07-22T12:56:28;97661.78;;;32.50;31.62
71938;BME280;59810;48.800;9.086;2022-07-22T12:58:53;97664.25;;;32.76;30.84
71938;BME280;59810;48.800;9.086;2022-07-22T13:01:19;97653.81;;;32.56;32.03
71938;BME280;59810;48.800;9.086;2022-07-22T13:03:44;97646.88;;;32.21;32.71
71938;BME280;59810;48.800;9.086;2022-07-22T13:06:09;97644.94;;;31.70;33.36
71938;BME280;59810;48.800;9.086;2022-07-22T13:08:37;97645.84;;;31.81;32.78
71938;BME280;59810;48.800;9.086;2022-07-22T13:11:02;97642.31;;;31.88;31.59
71938;BME280;59810;48.800;9.086;2022-07-22T13:13:28;97638.03;;;32.15;33.39
71938;BME280;59810;48.800;9.086;2022-07-22T13:15:55;97642.38;;;31.99;32.45
71938;BME280;59810;48.800;9.086;2022-07-22T13:18:20;97639.69;;;32.20;32.02
71938;BME280;59810;48.800;9.086;2022-07-22T13:20:46;97632.59;;;32.37;31.73
71938;BME280;59810;48.800;9.086;2022-07-22T13:23:12;97629.47;;;32.60;31.84
71938;BME280;59810;48.800;9.086;2022-07-22T13:25:37;97629.56;;;33.09;32.71
71938;BME280;59810;48.800;9.086;2022-07-22T13:28:04;97627.97;;;32.94;30.53
71938;BME280;59810;48.800;9.086;2022-07-22T13:30:30;97621.53;;;32.83;31.62
71938;BME280;59810;48.800;9.086;2022-07-22T13:32:56;97625.56;;;33.14;32.26